Time;durP1;ratioP1;P1;durP2;ratioP2;P2;SDS_P1;SDS_P2;PMS_P1;PMS_P2;Temp;Humidity;BMP_temperature;BMP_pressure;BME280_temperature;BME280_humidity;BME280_pressure;Samples;Min_cycle;Max_cycle;Signal;HPM_P1;HPM_P2
2021/03/13 00:03:39;;;;;;;;;;;;;;;;;;20947260;28;1910;-48
2021/03/13 00:14:00;;;;;;;;;;;;;;;;;;20967059;28;1731;-48
2021/03/13 00:24:21;;;;;;;;;;;;;;;;;;20952824;28;1905;-47
2021/03/13 00:34:42;;;;;;;;;;;;;;;;;;20932342;28;1108;-50
2021/03/13 00:45:18;;;;;;;;;;;;;;;;;;20884890;28;1910;-49
2021/03/13 00:55:53;;;;;;;;;;;;;;;;;;20882877;28;1063;-47
2021/03/13 01:06:28;;;;;;;;;;;;;;;;;;20980300;28;1906;-51
2021/03/13 01:17:03;;;;;;;;;;;;;;;;;;20980109;28;1294;-50
2021/03/13 01:27:38;;;;;;;;;;;;;;;;;;20965931;28;1993;-51
2021/03/13 01:38:14;;;;;;;;;;;;;;;;;;20943327;28;1122;-50
2021/03/13 01:48:42;;;;;;;;;;;;;;;;;;20894997;28;1981;-53
2021/03/13 01:59:21;;;;;;;;;;;;;;;;;;20897236;28;1294;-47
2021/03/13 02:10:03;;;;;;;;;;;;;;;;;;20992254;28;1977;-48
2021/03/13 02:20:42;;;;;;;;;;;;;;;;;;20963066;28;1174;-48
2021/03/13 02:31:08;;;;;;;;;;;;;;;;;;20977118;28;1996;-48
2021/03/13 02:41:36;;;;;;;;;;;;;;;;;;20903144;28;1335;-48
2021/03/13 02:51:57;;;;;;;;;;;;;;;;;;20863110;28;1508;-47
2021/03/13 03:02:36;;;;;;;;;;;;;;;;;;20942181;28;1993;-47
2021/03/13 03:12:57;;;;;;;;;;;;;;;;;;20929355;28;1258;-46
2021/03/13 03:23:19;;;;;;;;;;;;;;;;;;20957695;28;1985;-49
2021/03/13 03:33:54;;;;;;;;;;;;;;;;;;20942473;28;1156;-47
2021/03/13 03:44:45;;;;;;;;;;;;;;;;;;20820423;28;1977;-46
2021/03/13 03:55:21;;;;;;;;;;;;;;;;;;20818332;28;1131;-47
2021/03/13 04:05:42;;;;;;;;;;;;;;;;;;20954767;28;1926;-47
2021/03/13 04:16:03;;;;;;;;;;;;;;;;;;20970260;28;1173;-49
2021/03/13 04:26:23;;;;;;;;;;;;;;;;;;20968465;28;1902;-47
2021/03/13 04:37:00;;;;;;;;;;;;;;;;;;20945843;28;1163;-47
2021/03/13 04:47:22;;;;;;;;;;;;;;;;;;20868836;28;1906;-47
2021/03/13 04:57:57;;;;;;;;;;;;;;;;;;20882995;28;1400;-46
2021/03/13 05:08:32;;;;;;;;;;;;;;;;;;20952574;28;2005;-52
2021/03/13 05:19:07;;;;;;;;;;;;;;;;;;20964303;28;1233;-49
2021/03/13 05:29:42;;;;;;;;;;;;;;;;;;20964530;28;1906;-47
2021/03/13 05:40:04;;;;;;;;;;;;;;;;;;20919816;28;1276;-48
2021/03/13 05:50:39;;;;;;;;;;;;;;;;;;20881751;28;1898;-46
2021/03/13 06:01:00;;;;;;;;;;;;;;;;;;20932951;28;1301;-49
2021/03/13 06:11:35;;;;;;;;;;;;;;;;;;20939841;28;1973;-49
2021/03/13 06:22:30;;;;;;;;;;;;;;;;;;20879646;28;1894;-51
2021/03/13 06:33:24;;;;;;;;;;;;;;;;;;20878041;28;1203;-51
2021/03/13 06:44:00;;;;;;;;;;;;;;;;;;20892784;28;1984;-49
2021/03/13 06:54:21;;;;;;;;;;;;;;;;;;20904878;28;1084;-48
2021/03/13 07:05:07;;;;;;;;;;;;;;;;;;20889732;28;1991;-53
2021/03/13 07:15:43;;;;;;;;;;;;;;;;;;20889636;28;1011;-48
2021/03/13 07:26:18;;;;;;;;;;;;;;;;;;20890674;28;1989;-49
2021/03/13 07:36:42;;;;;;;;;;;;;;;;;;20889756;28;1265;-48
2021/03/13 07:47:02;;;;;;;;;;;;;;;;;;20888852;28;1910;-48
2021/03/13 07:57:37;;;;;;;;;;;;;;;;;;20897289;28;1285;-47
2021/03/13 08:08:03;;;;;;;;;;;;;;;;;;20953866;28;2320;-46
2021/03/13 08:18:42;;;;;;;;;;;;;;;;;;20959313;28;1434;-45
2021/03/13 08:29:13;;;;;;;;;;;;;;;;;;20967894;28;1898;-45
2021/03/13 08:39:34;;;;;;;;;;;;;;;;;;20553221;28;10000201;-44
2021/03/13 08:49:55;;;;;;;;;;;;;;;;;;20873579;28;1910;-41
2021/03/13 09:00:16;;;;;;;;;;;;;;;;;;20904401;28;1476;-41
2021/03/13 09:10:38;;;;;;;;;;;;;;;;;;20965232;28;1909;-40
2021/03/13 09:21:33;;;;;;;;;;;;;;;;;;20979456;28;1258;-41
2021/03/13 09:32:13;;;;;;;;;;;;;;;;;;20913256;28;1918;-41
2021/03/13 09:42:49;;;;;;;;;;;;;;;;;;20901250;28;2413;-41
2021/03/13 09:53:11;;;;;;;;;;;;;;;;;;20929381;28;1128;-41
2021/03/13 10:03:46;;;;;;;;;;;;;;;;;;20919280;28;1898;-40
2021/03/13 10:14:22;;;;;;;;;;;;;;;;;;20874052;28;1074;-41
2021/03/13 10:24:53;;;;;;;;;;;;;;;;;;20888672;28;1902;-43
2021/03/13 10:35:17;;;;;;;;;;;;;;;;;;20892893;28;1225;-41
2021/03/13 10:45:43;;;;;;;;;;;;;;;;;;20929491;28;1898;-40
2021/03/13 10:56:05;;;;;;;;;;;;;;;;;;20976583;28;981;-41
2021/03/13 11:06:27;;;;;;;;;;;;;;;;;;20891688;28;1983;-41
2021/03/13 11:17:01;;;;;;;;;;;;;;;;;;20892216;28;1117;-43
2021/03/13 11:27:22;;;;;;;;;;;;;;;;;;20888816;28;1984;-40
2021/03/13 11:37:46;;;;;;;;;;;;;;;;;;20879911;28;1506;-35
2021/03/13 11:48:09;;;;;;;;;;;;;;;;;;20857923;28;1993;-38
2021/03/13 11:58:30;;;;;;;;;;;;;;;;;;20879781;28;2167;-37
2021/03/13 12:09:07;;;;;;;;;;;;;;;;;;20882422;28;1894;-36
2021/03/13 12:19:28;;;;;;;;;;;;;;;;;;20955994;28;1256;-38
2021/03/13 12:30:03;;;;;;;;;;;;;;;;;;20955744;28;1902;-38
2021/03/13 12:40:23;;;;;;;;;;;;;;;;;;20950944;28;1284;-38
2021/03/13 12:50:44;;;;;;;;;;;;;;;;;;20934448;28;1894;-39
2021/03/13 13:01:05;;;;;;;;;;;;;;;;;;20518044;28;10000283;-38
2021/03/13 13:11:26;;;;;;;;;;;;;;;;;;20897145;28;2003;-33
2021/03/13 13:22:02;;;;;;;;;;;;;;;;;;20890270;28;1154;-34
2021/03/13 13:32:37;;;;;;;;;;;;;;;;;;20910401;28;1539;-35
2021/03/13 13:43:12;;;;;;;;;;;;;;;;;;20909891;28;1910;-35
2021/03/13 13:53:32;;;;;;;;;;;;;;;;;;20915090;28;1103;-36
2021/03/13 14:04:07;;;;;;;;;;;;;;;;;;20924200;28;2277;-36
2021/03/13 14:14:29;;;;;;;;;;;;;;;;;;20940708;28;1388;-36
2021/03/13 14:24:50;;;;;;;;;;;;;;;;;;20920291;28;1963;-35
2021/03/13 14:35:26;;;;;;;;;;;;;;;;;;20895042;28;1266;-35
2021/03/13 14:45:48;;;;;;;;;;;;;;;;;;20925189;28;1926;-43
2021/03/13 14:56:09;;;;;;;;;;;;;;;;;;20921293;28;1116;-43
2021/03/13 15:06:44;;;;;;;;;;;;;;;;;;20886074;28;1983;-43
2021/03/13 15:17:19;;;;;;;;;;;;;;;;;;20919435;28;1232;-44
2021/03/13 15:27:44;;;;;;;;;;;;;;;;;;20903289;28;1909;-43
2021/03/13 15:38:06;;;;;;;;;;;;;;;;;;20901173;28;1294;-34
2021/03/13 15:48:41;;;;;;;;;;;;;;;;;;20910249;28;1983;-35
2021/03/13 15:59:01;;;;;;;;;;;;;;;;;;20893690;28;1852;-36
2021/03/13 16:09:36;;;;;;;;;;;;;;;;;;20937798;28;1894;-36
2021/03/13 16:20:12;;;;;;;;;;;;;;;;;;20918326;28;1163;-37
2021/03/13 16:30:50;;;;;;;;;;;;;;;;;;20872688;28;1996;-36
2021/03/13 16:41:28;;;;;;;;;;;;;;;;;;20857730;28;1299;-36
2021/03/13 16:52:04;;;;;;;;;;;;;;;;;;20886705;28;1972;-37
2021/03/13 17:02:25;;;;;;;;;;;;;;;;;;20795069;28;2272;-38
2021/03/13 17:12:46;;;;;;;;;;;;;;;;;;20883881;28;1948;-38
2021/03/13 17:23:21;;;;;;;;;;;;;;;;;;20872476;28;1902;-39
2021/03/13 17:33:56;;;;;;;;;;;;;;;;;;20885922;28;1816;-39
2021/03/13 17:44:20;;;;;;;;;;;;;;;;;;20858826;28;1914;-39
2021/03/13 17:54:41;;;;;;;;;;;;;;;;;;20884965;28;1315;-39
2021/03/13 18:05:25;;;;;;;;;;;;;;;;;;20833109;28;2566;-39
2021/03/13 18:15:46;;;;;;;;;;;;;;;;;;20884529;28;1033;-39
2021/03/13 18:26:07;;;;;;;;;;;;;;;;;;20900736;28;1981;-38
2021/03/13 18:36:42;;;;;;;;;;;;;;;;;;20942170;28;1172;-40
2021/03/13 18:47:04;;;;;;;;;;;;;;;;;;20964045;28;2003;-39
2021/03/13 18:57:42;;;;;;;;;;;;;;;;;;20939349;28;2278;-39
2021/03/13 19:08:07;;;;;;;;;;;;;;;;;;20904792;28;1985;-62
2021/03/13 19:18:28;;;;;;;;;;;;;;;;;;20897781;28;1140;-43
2021/03/13 19:29:03;;;;;;;;;;;;;;;;;;20924018;28;1987;-43
2021/03/13 19:39:37;;;;;;;;;;;;;;;;;;20916804;28;1307;-47
2021/03/13 19:50:12;;;;;;;;;;;;;;;;;;20917105;28;1985;-37
2021/03/13 20:00:33;;;;;;;;;;;;;;;;;;20925697;28;1142;-44
2021/03/13 20:11:08;;;;;;;;;;;;;;;;;;20905740;28;1985;-48
2021/03/13 20:21:43;;;;;;;;;;;;;;;;;;20945048;28;1205;-40
2021/03/13 20:32:04;;;;;;;;;;;;;;;;;;20913538;28;1993;-38
2021/03/13 20:42:25;;;;;;;;;;;;;;;;;;20922037;28;1224;-50
2021/03/13 20:53:01;;;;;;;;;;;;;;;;;;20895429;28;1968;-33
2021/03/13 21:03:21;;;;;;;;;;;;;;;;;;20907610;28;1995;-33
2021/03/13 21:18:51;;;;;;;;;;;;;;;;;;10560739;27;1668;-38
2021/03/13 21:24:27;;;;;;;;;;;;;;;;;;10532386;28;1522;-35
2021/03/13 21:30:03;;;;;;;;;;;;;;;;;;10558023;28;1109;-35
2021/03/13 21:35:23;;;;;;;;;;;;;;;;;;10472787;28;10002;-37
2021/03/13 21:40:44;;;;;;;;;;;;;;;;;;10418425;28;1295;-35
2021/03/13 21:46:05;;;;;;;;;;;;;;;;;;10416029;28;1113;-37
2021/03/13 21:51:26;;;;;;;;;;;;;;;;;;10404746;28;1175;-39
2021/03/13 21:57:00;;;;;;;;;;;;;;;;;;10415078;28;1902;-36
2021/03/13 22:02:21;;;;;;;;;;;;;;;;;;10411704;28;2001;-34
2021/03/13 22:07:57;;;;;;;;;;;;;;;;;;10408829;28;1106;-35
2021/03/13 22:13:18;;;;;;;;;;;;;;;;;;10413556;28;1411;-38
2021/03/13 22:18:38;;;;;;;;;;;;;;;;;;10416942;28;1894;-33
2021/03/13 22:23:59;;;;;;;;;;;;;;;;;;10414908;28;1156;-32
2021/03/13 22:29:34;;;;;;;;;;;;;;;;;;10391173;28;1112;-33
2021/03/13 22:34:54;;;;;;;;;;;;;;;;;;10386640;28;1906;-41
2021/03/13 22:40:16;;;;;;;;;;;;;;;;;;10388409;28;1244;-40
2021/03/13 22:45:38;;;;;;;;;;;;;;;;;;10367104;28;1123;-41
2021/03/13 22:50:58;;;;;;;;;;;;;;;;;;10374793;28;1178;-41
2021/03/13 22:56:19;;;;;;;;;;;;;;;;;;10385173;28;1983;-42
2021/03/13 23:01:40;;;;;;;;;;;;;;;;;;10396152;28;1090;-45
